Airfield :
LOGIN :

Register | Disclaimer

   EN    FR    IT 

 










Legend :    VFR   Marginal VFR   IFR   Intensive IFR   Very Intensive IFR
Visi :
Ceiling :
>= 8 km
>= 3000ft
5 to 8 km
1000 to 3000 ft
1500m to 5 km
500 to 1000 ft
800 to 1500m
200 to 500 ft
< 800m
< 200 ft
Symbols :   Thunderstorms  Fog  Heavy snow  Heavy precipitations  Wind > 20 kt
SIGMETs :     Misc.  Thunderstorms  Icing  Turbulence  Mountain Waves  Volcanic Ashes






- Airport Elevation : 100 ft


EBDT - Schaffen

CURRENT METAR :
  • 150755Z AUTO 18005KT 9999 -RA FEW033/// BKN047/// BKN090/// 15/14 Q1006 BLU

EXPIRED METARs :
  • 150752Z AUTO 18005KT 9999 -DZ FEW017/// SCT050/// BKN065/// 15/14 Q1006 BLU
  • 150725Z AUTO 17004KT 9999 -RA FEW013/// SCT016/// BKN022/// 14/14 Q1006 WHT
  • 150722Z AUTO 18004KT 9999 -RA SCT013/// BKN021/// OVC025/// 14/14 Q1006 GRN
  • 150655Z AUTO 19003KT 9999 -RA FEW014/// SCT019/// BKN075/// 14/14 Q1006 WHT
  • 150625Z AUTO 18004KT 9999 -RA FEW015/// BKN021/// BKN070/// 14/13 Q1006 WHT
  • 150613Z AUTO 18004KT 9999 -RA FEW015/// SCT022/// OVC065/// 14/13 Q1006 WHT
  • 150555Z AUTO 16004KT 9999 -RA FEW017/// OVC065/// 14/13 Q1006 BLU
  • 150525Z AUTO 19004KT 9999 -RA SCT050/// BKN080/// OVC095/// 15/12 Q1006 BLU

Expired Forecast.



MET'MAP, your aeronautical weather chart ! - Copyright ORBIFLY December 2007 - Disclaimer

ORBIFLY MET'MAP TEAM :

Programming & Development : Alexandra Zaïnal
Concept & Development : Baudouin d'Aumeries
Co-Development & Prog : Marc-Olivier Méhu
Technical & hardware support : Manuel Goepfert

Contact : metmap@orbifly.com




SOURCES & CREDITS :

   NOAA